Time;durP1;ratioP1;P1;durP2;ratioP2;P2;SDS_P1;SDS_P2;PMS_P1;PMS_P2;Temp;Humidity;BMP_temperature;BMP_pressure;BME280_temperature;BME280_humidity;BME280_pressure;Samples;Min_cycle;Max_cycle;Signal;HPM_P1;HPM_P2
2023/05/18 00:01:21;;;;;;;0.00;0.00;;;;;;;;;;4973134;28;20130;-82
2023/05/18 00:03:47;;;;;;;0.00;0.00;;;;;;;;;;4973162;28;20490;-82
2023/05/18 00:06:13;;;;;;;0.00;0.00;;;;;;;;;;4957201;28;20050;-82
2023/05/18 00:08:39;;;;;;;0.00;0.00;;;;;;;;;;4974588;28;20050;-82
2023/05/18 00:11:05;;;;;;;0.00;0.00;;;;;;;;;;4972823;28;20454;-82
2023/05/18 00:13:31;;;;;;;0.00;0.00;;;;;;;;;;4974600;28;20097;-82
2023/05/18 00:15:57;;;;;;;0.00;0.00;;;;;;;;;;4973597;28;20043;-82
2023/05/18 00:18:25;;;;;;;0.00;0.00;;;;;;;;;;4972754;28;20053;-82
2023/05/18 00:20:57;;;;;;;0.00;0.00;;;;;;;;;;4972775;28;20081;-82
2023/05/18 00:23:23;;;;;;;0.00;0.00;;;;;;;;;;4973349;28;20074;-82
2023/05/18 00:25:49;;;;;;;0.00;0.00;;;;;;;;;;4973060;28;20137;-82
2023/05/18 00:28:16;;;;;;;0.00;0.00;;;;;;;;;;4972849;28;20474;-82
2023/05/18 00:30:42;;;;;;;0.00;0.00;;;;;;;;;;4973216;28;20053;-82
2023/05/18 00:33:08;;;;;;;0.00;0.00;;;;;;;;;;4973027;28;20039;-82
2023/05/18 00:35:34;;;;;;;0.00;0.00;;;;;;;;;;4973036;28;20041;-82
2023/05/18 00:38:00;;;;;;;0.00;0.00;;;;;;;;;;4974202;28;20035;-82
2023/05/18 00:40:28;;;;;;;0.00;0.00;;;;;;;;;;4972665;28;20141;-82
2023/05/18 00:42:54;;;;;;;0.00;0.00;;;;;;;;;;4974185;28;20082;-82
2023/05/18 00:45:20;;;;;;;0.00;0.00;;;;;;;;;;4974027;28;20047;-82
2023/05/18 00:47:47;;;;;;;0.00;0.00;;;;;;;;;;4974105;28;20039;-82
2023/05/18 00:50:13;;;;;;;0.00;0.00;;;;;;;;;;4972511;28;20065;-82
2023/05/18 00:52:39;;;;;;;0.00;0.00;;;;;;;;;;4974159;28;20359;-82
2023/05/18 00:55:05;;;;;;;0.00;0.00;;;;;;;;;;4956410;28;20054;-82
2023/05/18 00:57:32;;;;;;;0.00;0.00;;;;;;;;;;4972637;28;20047;-82
2023/05/18 00:59:59;;;;;;;0.00;0.00;;;;;;;;;;4973586;28;20449;-82
2023/05/18 01:02:28;;;;;;;0.00;0.00;;;;;;;;;;4973807;28;20461;-82
2023/05/18 01:04:54;;;;;;;0.00;0.00;;;;;;;;;;4973825;28;20061;-82
2023/05/18 01:07:25;;;;;;;0.00;0.00;;;;;;;;;;4956308;28;20398;-82
2023/05/18 01:09:51;;;;;;;0.00;0.00;;;;;;;;;;4972480;28;20047;-82
2023/05/18 01:12:21;;;;;;;0.00;0.00;;;;;;;;;;4973682;28;20109;-82
2023/05/18 01:15:06;;;;;;;0.00;0.00;;;;;;;;;;4973690;28;20490;-82
2023/05/18 01:17:48;;;;;;;0.00;0.00;;;;;;;;;;4972326;28;20121;-82
2023/05/18 01:20:29;;;;;;;0.00;0.00;;;;;;;;;;4973420;28;20400;-82
2023/05/18 01:22:58;;;;;;;0.00;0.00;;;;;;;;;;4973833;28;20038;-82
2023/05/18 01:25:30;;;;;;;0.00;0.00;;;;;;;;;;4973728;28;20041;-82
2023/05/18 01:27:58;;;;;;;0.00;0.00;;;;;;;;;;4973696;28;20426;-82
2023/05/18 01:30:25;;;;;;;0.00;0.00;;;;;;;;;;4957431;28;20050;-82
2023/05/18 01:32:51;;;;;;;0.00;0.00;;;;;;;;;;4977805;28;20047;-82
2023/05/18 01:35:17;;;;;;;0.00;0.00;;;;;;;;;;4977878;28;20217;-82
2023/05/18 01:37:43;;;;;;;0.00;0.00;;;;;;;;;;4978029;28;20043;-82
2023/05/18 01:40:09;;;;;;;0.00;0.00;;;;;;;;;;4978018;28;20121;-82
2023/05/18 01:42:41;;;;;;;0.00;0.00;;;;;;;;;;4977497;28;20554;-81
2023/05/18 01:45:13;;;;;;;0.00;0.00;;;;;;;;;;4977399;28;20051;-82
2023/05/18 01:47:42;;;;;;;0.00;0.00;;;;;;;;;;4977389;28;20038;-82
2023/05/18 01:50:08;;;;;;;0.00;0.00;;;;;;;;;;4975735;28;20041;-82
2023/05/18 01:52:39;;;;;;;0.00;0.00;;;;;;;;;;4975907;28;20058;-82
2023/05/18 01:55:07;;;;;;;0.00;0.00;;;;;;;;;;4977170;28;20483;-82
2023/05/18 01:57:34;;;;;;;0.00;0.00;;;;;;;;;;4976822;28;20046;-82
2023/05/18 02:00:02;;;;;;;0.00;0.00;;;;;;;;;;4977144;28;20098;-82
2023/05/18 02:02:28;;;;;;;0.00;0.00;;;;;;;;;;4976955;28;20078;-82
2023/05/18 02:04:55;;;;;;;0.00;0.00;;;;;;;;;;4975700;28;20117;-82
2023/05/18 02:07:21;;;;;;;0.00;0.00;;;;;;;;;;4976672;28;20057;-82
2023/05/18 02:09:47;;;;;;;0.00;0.00;;;;;;;;;;4975501;28;20122;-82
2023/05/18 02:12:13;;;;;;;0.00;0.00;;;;;;;;;;4975460;28;20127;-82
2023/05/18 02:14:39;;;;;;;0.00;0.00;;;;;;;;;;4976021;28;20472;-82
2023/05/18 02:17:05;;;;;;;0.00;0.00;;;;;;;;;;4976569;28;20046;-82
2023/05/18 02:19:32;;;;;;;0.00;0.00;;;;;;;;;;4976512;28;20054;-82
2023/05/18 02:21:58;;;;;;;0.00;0.00;;;;;;;;;;4976406;28;20043;-82
2023/05/18 02:24:24;;;;;;;0.00;0.00;;;;;;;;;;4975115;28;20486;-82
2023/05/18 02:26:50;;;;;;;0.00;0.00;;;;;;;;;;4958921;28;20101;-82
2023/05/18 02:29:17;;;;;;;0.00;0.00;;;;;;;;;;4976565;28;20105;-82
2023/05/18 02:31:43;;;;;;;0.00;0.00;;;;;;;;;;4976365;28;20081;-82
2023/05/18 02:34:09;;;;;;;0.00;0.00;;;;;;;;;;4975246;28;20054;-82
2023/05/18 02:36:41;;;;;;;0.00;0.00;;;;;;;;;;4974849;28;20055;-82
2023/05/18 02:39:07;;;;;;;0.00;0.00;;;;;;;;;;4975135;28;20047;-82
2023/05/18 02:41:34;;;;;;;0.00;0.00;;;;;;;;;;4975489;28;20435;-82
2023/05/18 02:44:03;;;;;;;0.00;0.00;;;;;;;;;;4976145;28;20042;-82
2023/05/18 02:46:29;;;;;;;0.00;0.00;;;;;;;;;;4975995;28;20402;-82
2023/05/18 02:48:56;;;;;;;0.00;0.00;;;;;;;;;;4976114;28;20474;-82
2023/05/18 02:51:22;;;;;;;0.00;0.00;;;;;;;;;;4974622;28;20050;-82
2023/05/18 02:53:48;;;;;;;0.00;0.00;;;;;;;;;;4976607;28;20043;-82
2023/05/18 02:56:16;;;;;;;0.00;0.00;;;;;;;;;;4974552;28;20050;-82
2023/05/18 02:58:42;;;;;;;0.00;0.00;;;;;;;;;;4976006;28;20074;-82
2023/05/18 03:01:10;;;;;;;0.00;0.00;;;;;;;;;;4975933;28;20046;-82
2023/05/18 03:03:36;;;;;;;0.00;0.00;;;;;;;;;;4974495;28;20070;-82
2023/05/18 03:06:03;;;;;;;0.00;0.00;;;;;;;;;;4975836;28;20041;-82
2023/05/18 03:08:30;;;;;;;0.00;0.00;;;;;;;;;;4975816;28;20043;-82
2023/05/18 03:10:57;;;;;;;0.00;0.00;;;;;;;;;;4974345;28;20050;-82
2023/05/18 03:13:24;;;;;;;0.00;0.00;;;;;;;;;;4975611;28;20039;-82
2023/05/18 03:15:50;;;;;;;0.00;0.00;;;;;;;;;;4974467;28;20081;-82
2023/05/18 03:18:17;;;;;;;0.00;0.00;;;;;;;;;;4975500;28;20047;-82
2023/05/18 03:20:44;;;;;;;0.00;0.00;;;;;;;;;;4958505;28;20047;-82
2023/05/18 03:23:09;;;;;;;0.00;0.00;;;;;;;;;;4973934;28;20047;-82
2023/05/18 03:25:36;;;;;;;0.00;0.00;;;;;;;;;;4975721;28;20478;-82
2023/05/18 03:28:04;;;;;;;0.00;0.00;;;;;;;;;;4974110;28;20043;-82
2023/05/18 03:30:33;;;;;;;0.00;0.00;;;;;;;;;;4975277;28;20050;-82
2023/05/18 03:33:00;;;;;;;0.00;0.00;;;;;;;;;;4973706;28;20058;-82
2023/05/18 03:35:26;;;;;;;0.00;0.00;;;;;;;;;;4974987;28;20498;-82
2023/05/18 03:37:52;;;;;;;0.00;0.00;;;;;;;;;;4975171;28;20038;-82
2023/05/18 03:40:19;;;;;;;0.00;0.00;;;;;;;;;;4973908;28;20085;-82
2023/05/18 03:42:45;;;;;;;0.00;0.00;;;;;;;;;;4974913;28;20039;-83
2023/05/18 03:45:11;;;;;;;0.00;0.00;;;;;;;;;;4973862;28;20130;-82
2023/05/18 03:47:37;;;;;;;0.00;0.00;;;;;;;;;;4974888;28;20039;-82
2023/05/18 03:50:04;;;;;;;0.00;0.00;;;;;;;;;;4975481;28;20051;-82
2023/05/18 03:52:32;;;;;;;0.00;0.00;;;;;;;;;;4957542;28;20407;-82
2023/05/18 03:54:59;;;;;;;0.00;0.00;;;;;;;;;;4973967;28;20090;-82
2023/05/18 03:57:25;;;;;;;0.00;0.00;;;;;;;;;;4973665;28;20047;-82
2023/05/18 03:59:51;;;;;;;0.00;0.00;;;;;;;;;;4974727;28;20189;-82
2023/05/18 04:02:17;;;;;;;0.00;0.00;;;;;;;;;;4974590;28;20047;-82
2023/05/18 04:04:46;;;;;;;0.00;0.00;;;;;;;;;;4973214;28;20058;-83
2023/05/18 04:07:15;;;;;;;0.00;0.00;;;;;;;;;;4974492;28;20050;-83
2023/05/18 04:09:41;;;;;;;0.00;0.00;;;;;;;;;;4973910;28;20528;-82
2023/05/18 04:12:07;;;;;;;0.00;0.00;;;;;;;;;;4974537;28;20438;-82
2023/05/18 04:14:34;;;;;;;0.00;0.00;;;;;;;;;;4974663;28;20089;-82
2023/05/18 04:17:04;;;;;;;0.00;0.00;;;;;;;;;;4956897;28;20050;-83
2023/05/18 04:19:33;;;;;;;0.00;0.00;;;;;;;;;;4973041;28;20055;-83
2023/05/18 04:22:03;;;;;;;0.00;0.00;;;;;;;;;;4973012;28;20372;-83
2023/05/18 04:24:31;;;;;;;0.00;0.00;;;;;;;;;;4973235;28;20406;-83
2023/05/18 04:26:58;;;;;;;0.00;0.00;;;;;;;;;;4973070;28;20057;-83
2023/05/18 04:29:24;;;;;;;0.00;0.00;;;;;;;;;;4972569;28;20039;-83
2023/05/18 04:31:52;;;;;;;0.00;0.00;;;;;;;;;;4973246;28;20050;-82
2023/05/18 04:34:18;;;;;;;0.00;0.00;;;;;;;;;;4974138;28;20125;-83
2023/05/18 04:36:45;;;;;;;0.00;0.00;;;;;;;;;;4974353;28;20082;-82
2023/05/18 04:39:12;;;;;;;0.00;0.00;;;;;;;;;;4973851;28;20050;-82
2023/05/18 04:41:40;;;;;;;0.00;0.00;;;;;;;;;;4972875;28;20053;-82
2023/05/18 04:44:07;;;;;;;0.00;0.00;;;;;;;;;;4973734;28;20400;-83
2023/05/18 04:46:34;;;;;;;0.00;0.00;;;;;;;;;;4972902;28;20050;-83
2023/05/18 04:49:00;;;;;;;0.00;0.00;;;;;;;;;;4974000;28;20118;-83
2023/05/18 04:51:26;;;;;;;0.00;0.00;;;;;;;;;;4973073;28;20074;-82
2023/05/18 04:53:52;;;;;;;0.00;0.00;;;;;;;;;;4973867;28;20050;-83
2023/05/18 04:56:22;;;;;;;0.00;0.00;;;;;;;;;;4972713;28;20061;-82
2023/05/18 04:58:48;;;;;;;0.00;0.00;;;;;;;;;;4972357;28;20446;-82
2023/05/18 05:01:15;;;;;;;0.00;0.00;;;;;;;;;;4973774;28;20073;-82
2023/05/18 05:03:42;;;;;;;0.00;0.00;;;;;;;;;;4972142;28;20050;-83
2023/05/18 05:06:08;;;;;;;0.00;0.00;;;;;;;;;;4972325;28;20038;-82
2023/05/18 05:08:34;;;;;;;0.00;0.00;;;;;;;;;;4972275;28;20108;-83
2023/05/18 05:11:00;;;;;;;0.00;0.00;;;;;;;;;;4972372;28;20441;-83
2023/05/18 05:13:27;;;;;;;0.00;0.00;;;;;;;;;;4973309;28;20126;-83
2023/05/18 05:15:53;;;;;;;0.00;0.00;;;;;;;;;;4973777;28;20074;-83
2023/05/18 05:18:19;;;;;;;0.00;0.00;;;;;;;;;;4973530;28;20097;-83
2023/05/18 05:20:45;;;;;;;0.00;0.00;;;;;;;;;;4972297;28;20545;-83
2023/05/18 05:23:11;;;;;;;0.00;0.00;;;;;;;;;;4972120;28;20046;-83
2023/05/18 05:25:37;;;;;;;0.05;0.00;;;;;;;;;;4973612;28;20064;-84
2023/05/18 05:28:03;;;;;;;0.00;0.00;;;;;;;;;;4973402;28;20042;-84
2023/05/18 05:30:30;;;;;;;0.00;0.00;;;;;;;;;;4973610;28;20043;-83
2023/05/18 05:32:55;;;;;;;0.00;0.00;;;;;;;;;;4971982;28;20124;-83
2023/05/18 05:35:21;;;;;;;0.00;0.00;;;;;;;;;;4972332;28;20047;-83
2023/05/18 05:37:47;;;;;;;0.00;0.00;;;;;;;;;;4972108;28;20472;-83
2023/05/18 05:40:13;;;;;;;0.00;0.00;;;;;;;;;;4973345;28;20050;-83
2023/05/18 05:42:40;;;;;;;0.00;0.00;;;;;;;;;;4972035;28;20504;-83
2023/05/18 05:45:07;;;;;;;0.00;0.00;;;;;;;;;;4972022;28;20062;-83
2023/05/18 05:47:33;;;;;;;0.00;0.00;;;;;;;;;;4973472;28;20266;-83
2023/05/18 05:49:59;;;;;;;0.00;0.00;;;;;;;;;;4956100;28;20187;-83
2023/05/18 05:52:27;;;;;;;0.00;0.00;;;;;;;;;;4972238;28;20047;-83
2023/05/18 05:54:53;;;;;;;0.00;0.00;;;;;;;;;;4971708;28;20050;-83
2023/05/18 05:57:19;;;;;;;0.00;0.00;;;;;;;;;;4972011;28;20043;-83
2023/05/18 05:59:45;;;;;;;0.20;0.20;;;;;;;;;;4973075;28;20125;-85
2023/05/18 06:02:11;;;;;;;0.00;0.00;;;;;;;;;;4971904;28;20126;-83
2023/05/18 06:04:38;;;;;;;0.00;0.00;;;;;;;;;;4973037;28;20062;-82
2023/05/18 06:07:05;;;;;;;0.00;0.00;;;;;;;;;;4972003;28;20051;-83
2023/05/18 06:09:31;;;;;;;0.00;0.00;;;;;;;;;;4973175;28;20398;-82
2023/05/18 06:11:57;;;;;;;0.00;0.00;;;;;;;;;;4972171;28;20053;-82
2023/05/18 06:14:23;;;;;;;0.00;0.00;;;;;;;;;;4954270;28;20051;-82
2023/05/18 06:16:49;;;;;;;0.00;0.00;;;;;;;;;;4954052;28;20054;-83
2023/05/18 06:19:15;;;;;;;0.00;0.00;;;;;;;;;;4957362;28;20399;-82
2023/05/18 06:21:41;;;;;;;0.00;0.00;;;;;;;;;;4957587;29;20114;-82
2023/05/18 06:24:07;;;;;;;0.00;0.00;;;;;;;;;;4955995;29;20486;-82
2023/05/18 06:26:33;;;;;;;0.00;0.00;;;;;;;;;;4956095;29;20071;-82
2023/05/18 06:28:59;;;;;;;0.00;0.00;;;;;;;;;;4955961;28;20494;-83
2023/05/18 06:31:25;;;;;;;0.00;0.00;;;;;;;;;;4957633;29;20122;-82
2023/05/18 06:33:51;;;;;;;0.00;0.00;;;;;;;;;;4955836;29;20043;-83
2023/05/18 06:36:17;;;;;;;0.00;0.00;;;;;;;;;;4956424;29;20206;-82
2023/05/18 06:38:43;;;;;;;0.00;0.00;;;;;;;;;;4956030;29;20051;-83
2023/05/18 06:41:09;;;;;;;0.00;0.00;;;;;;;;;;4972506;28;20070;-83
2023/05/18 06:43:35;;;;;;;0.00;0.00;;;;;;;;;;4974917;28;20074;-82
2023/05/18 06:46:01;;;;;;;0.00;0.00;;;;;;;;;;4975462;28;20070;-82
2023/05/18 06:48:28;;;;;;;0.00;0.00;;;;;;;;;;4975360;28;20054;-82
2023/05/18 06:50:54;;;;;;;0.00;0.00;;;;;;;;;;4975464;28;20411;-83
2023/05/18 06:53:22;;;;;;;0.00;0.00;;;;;;;;;;4975118;28;20122;-82
2023/05/18 06:55:48;;;;;;;0.00;0.00;;;;;;;;;;4974850;28;20047;-83
2023/05/18 06:58:14;;;;;;;0.00;0.00;;;;;;;;;;4959078;28;20125;-84
2023/05/18 07:00:40;;;;;;;0.00;0.00;;;;;;;;;;4975774;28;20512;-83
2023/05/18 07:03:07;;;;;;;0.00;0.00;;;;;;;;;;4974477;28;20054;-83
2023/05/18 07:05:33;;;;;;;0.00;0.00;;;;;;;;;;4974668;28;20133;-82
2023/05/18 07:07:59;;;;;;;0.00;0.00;;;;;;;;;;4974969;28;20062;-83
2023/05/18 07:10:27;;;;;;;0.00;0.00;;;;;;;;;;4976274;28;20039;-83
2023/05/18 07:12:53;;;;;;;0.00;0.00;;;;;;;;;;4958839;28;20054;-83
2023/05/18 07:15:19;;;;;;;0.00;0.00;;;;;;;;;;4974477;28;20047;-83
2023/05/18 07:17:45;;;;;;;0.00;0.00;;;;;;;;;;4958648;28;20057;-83
2023/05/18 07:20:12;;;;;;;0.00;0.00;;;;;;;;;;4975456;28;20042;-83
2023/05/18 07:22:38;;;;;;;0.00;0.00;;;;;;;;;;4975698;28;20042;-83
2023/05/18 07:25:04;;;;;;;0.00;0.00;;;;;;;;;;4974139;28;20406;-83
2023/05/18 07:27:32;;;;;;;0.00;0.00;;;;;;;;;;4974392;28;20046;-83
2023/05/18 07:29:58;;;;;;;0.00;0.00;;;;;;;;;;4973675;28;20054;-84
2023/05/18 07:32:24;;;;;;;0.00;0.00;;;;;;;;;;4975660;28;20038;-84
2023/05/18 07:34:50;;;;;;;0.00;0.00;;;;;;;;;;4975177;28;20513;-84
2023/05/18 07:37:16;;;;;;;0.00;0.00;;;;;;;;;;4974148;28;20371;-83
2023/05/18 07:39:42;;;;;;;0.00;0.00;;;;;;;;;;4974895;28;20047;-84
2023/05/18 07:42:08;;;;;;;0.00;0.00;;;;;;;;;;4975344;28;20049;-84
2023/05/18 07:44:34;;;;;;;0.00;0.00;;;;;;;;;;4973731;28;20046;-84
2023/05/18 07:47:00;;;;;;;0.00;0.00;;;;;;;;;;4973803;28;20065;-84
2023/05/18 07:49:26;;;;;;;0.00;0.00;;;;;;;;;;4974796;28;20047;-84
2023/05/18 07:51:52;;;;;;;0.00;0.00;;;;;;;;;;4975181;28;20067;-83
2023/05/18 07:54:18;;;;;;;0.00;0.00;;;;;;;;;;4973709;28;20051;-84
2023/05/18 07:56:44;;;;;;;0.00;0.00;;;;;;;;;;4973681;28;20042;-84
2023/05/18 07:59:10;;;;;;;0.00;0.00;;;;;;;;;;4974264;28;20062;-83
2023/05/18 08:01:37;;;;;;;0.00;0.00;;;;;;;;;;4973506;28;20453;-83
2023/05/18 08:04:03;;;;;;;0.00;0.00;;;;;;;;;;4973434;28;20154;-83
2023/05/18 08:06:30;;;;;;;0.00;0.00;;;;;;;;;;4973058;28;20141;-84
2023/05/18 08:08:56;;;;;;;0.00;0.00;;;;;;;;;;4973528;28;20602;-83
2023/05/18 08:11:22;;;;;;;0.00;0.00;;;;;;;;;;4974524;28;20110;-83
2023/05/18 08:13:49;;;;;;;0.00;0.00;;;;;;;;;;4974603;28;20039;-83
2023/05/18 08:16:15;;;;;;;0.00;0.00;;;;;;;;;;4972942;28;20378;-83
2023/05/18 08:18:41;;;;;;;0.00;0.00;;;;;;;;;;4973223;28;20054;-82
2023/05/18 08:21:08;;;;;;;0.00;0.00;;;;;;;;;;4974324;28;20078;-83
2023/05/18 08:23:35;;;;;;;0.00;0.00;;;;;;;;;;4974382;28;20052;-83
2023/05/18 08:26:02;;;;;;;0.00;0.00;;;;;;;;;;4956981;28;20074;-83
2023/05/18 08:28:28;;;;;;;0.00;0.00;;;;;;;;;;4974190;28;20491;-83
2023/05/18 08:30:54;;;;;;;0.00;0.00;;;;;;;;;;4974031;28;20122;-83
2023/05/18 08:33:22;;;;;;;0.00;0.00;;;;;;;;;;4974163;28;20089;-82
2023/05/18 08:35:48;;;;;;;0.00;0.00;;;;;;;;;;4956781;28;20047;-87
2023/05/18 08:38:15;;;;;;;0.00;0.00;;;;;;;;;;4957023;28;20473;-83
2023/05/18 08:41:00;;;;;;;0.00;0.00;;;;;;;;;;4972175;28;20105;-83
2023/05/18 08:43:32;;;;;;;0.00;0.00;;;;;;;;;;4972798;28;20042;-83
2023/05/18 08:46:13;;;;;;;0.00;0.00;;;;;;;;;;4973694;28;20521;-83
2023/05/18 08:48:40;;;;;;;0.00;0.00;;;;;;;;;;4974161;28;20042;-83
2023/05/18 08:51:06;;;;;;;0.00;0.00;;;;;;;;;;4972411;28;20053;-83
2023/05/18 08:53:32;;;;;;;0.00;0.00;;;;;;;;;;4973999;28;20092;-84
2023/05/18 08:55:59;;;;;;;0.00;0.00;;;;;;;;;;4972206;28;20047;-83
2023/05/18 08:58:35;;;;;;;0.00;0.00;;;;;;;;;;4972680;28;20552;-83
2023/05/18 09:01:02;;;;;;;0.00;0.00;;;;;;;;;;4972249;28;20398;-84
2023/05/18 09:03:28;;;;;;;0.00;0.00;;;;;;;;;;4956130;28;20047;-84
2023/05/18 09:05:55;;;;;;;0.00;0.00;;;;;;;;;;4972189;28;20058;-83
2023/05/18 09:08:21;;;;;;;0.00;0.00;;;;;;;;;;4973758;28;20479;-83
2023/05/18 09:10:48;;;;;;;0.00;0.00;;;;;;;;;;4955834;28;20187;-83
2023/05/18 09:13:14;;;;;;;0.00;0.00;;;;;;;;;;4956197;28;20065;-83
2023/05/18 09:15:40;;;;;;;0.00;0.00;;;;;;;;;;4972128;28;20407;-83
2023/05/18 09:18:06;;;;;;;0.00;0.00;;;;;;;;;;4973634;28;20042;-84
2023/05/18 09:20:32;;;;;;;0.00;0.00;;;;;;;;;;4972393;28;20046;-84
2023/05/18 09:22:59;;;;;;;0.00;0.00;;;;;;;;;;4972125;28;20178;-84
2023/05/18 09:25:26;;;;;;;0.00;0.00;;;;;;;;;;4971436;28;20058;-84
2023/05/18 09:27:52;;;;;;;0.00;0.00;;;;;;;;;;4972250;28;20122;-83
2023/05/18 09:30:18;;;;;;;0.00;0.00;;;;;;;;;;4971761;28;20047;-84
2023/05/18 09:32:47;;;;;;;0.00;0.00;;;;;;;;;;4972308;28;20047;-84
2023/05/18 09:35:13;;;;;;;0.00;0.00;;;;;;;;;;4969632;28;20038;-84
2023/05/18 09:37:43;;;;;;;0.00;0.00;;;;;;;;;;4967955;28;20181;-84
2023/05/18 09:40:09;;;;;;;0.00;0.00;;;;;;;;;;4955606;28;20479;-84
2023/05/18 09:42:38;;;;;;;0.00;0.00;;;;;;;;;;4971675;28;20046;-84
2023/05/18 09:45:18;;;;;;;0.00;0.00;;;;;;;;;;4973452;28;20430;-83
2023/05/18 09:47:44;;;;;;;0.00;0.00;;;;;;;;;;4954039;29;20039;-84
2023/05/18 09:50:10;;;;;;;0.00;0.00;;;;;;;;;;4952714;28;20043;-84
2023/05/18 09:52:46;;;;;;;0.00;0.00;;;;;;;;;;4957023;28;20055;-84
2023/05/18 09:55:12;;;;;;;0.00;0.00;;;;;;;;;;4956659;29;20352;-84
2023/05/18 09:57:42;;;;;;;0.00;0.00;;;;;;;;;;4961093;28;20122;-83
2023/05/18 10:00:10;;;;;;;0.00;0.00;;;;;;;;;;4941282;29;20051;-83
2023/05/18 10:02:40;;;;;;;0.00;0.00;;;;;;;;;;4957304;28;20047;-83
2023/05/18 10:05:06;;;;;;;0.00;0.00;;;;;;;;;;4957422;29;20059;-83
2023/05/18 10:07:35;;;;;;;0.00;0.00;;;;;;;;;;4956003;29;20149;-83
2023/05/18 10:10:02;;;;;;;0.00;0.00;;;;;;;;;;4956676;28;20510;-83
2023/05/18 10:12:28;;;;;;;0.00;0.00;;;;;;;;;;4940031;29;20090;-84
2023/05/18 10:14:54;;;;;;;0.00;0.00;;;;;;;;;;4956099;29;20048;-83
2023/05/18 10:17:21;;;;;;;0.00;0.00;;;;;;;;;;4956147;29;20403;-83
2023/05/18 10:19:49;;;;;;;0.00;0.00;;;;;;;;;;4956007;28;20053;-84
2023/05/18 10:22:21;;;;;;;0.00;0.00;;;;;;;;;;4955738;29;20062;-84
2023/05/18 10:24:51;;;;;;;0.00;0.00;;;;;;;;;;4956047;28;20049;-84
2023/05/18 10:27:18;;;;;;;0.00;0.00;;;;;;;;;;4939614;29;20047;-83
2023/05/18 10:29:45;;;;;;;0.00;0.00;;;;;;;;;;4955749;28;20122;-84
2023/05/18 10:32:12;;;;;;;0.00;0.00;;;;;;;;;;4955862;29;20073;-83
2023/05/18 10:34:38;;;;;;;0.00;0.00;;;;;;;;;;4939696;29;20517;-84
2023/05/18 10:37:05;;;;;;;0.00;0.00;;;;;;;;;;4956752;29;20178;-83
2023/05/18 10:39:36;;;;;;;0.00;0.00;;;;;;;;;;4957116;28;20039;-83
2023/05/18 10:42:02;;;;;;;0.00;0.00;;;;;;;;;;4955449;29;20083;-84
2023/05/18 10:44:30;;;;;;;0.00;0.00;;;;;;;;;;4955600;29;20098;-83
2023/05/18 10:46:56;;;;;;;0.00;0.00;;;;;;;;;;4956568;29;20486;-83
2023/05/18 10:49:24;;;;;;;0.00;0.00;;;;;;;;;;4939362;29;20126;-83
2023/05/18 10:51:53;;;;;;;0.00;0.00;;;;;;;;;;4955340;28;20043;-83
2023/05/18 10:54:19;;;;;;;0.00;0.00;;;;;;;;;;4939653;29;20122;-83
2023/05/18 10:56:49;;;;;;;0.00;0.00;;;;;;;;;;4956637;29;20043;-83
2023/05/18 10:59:17;;;;;;;0.00;0.00;;;;;;;;;;4955550;28;20142;-83
2023/05/18 11:01:44;;;;;;;0.00;0.00;;;;;;;;;;4954993;29;20486;-83
2023/05/18 11:04:10;;;;;;;0.00;0.00;;;;;;;;;;4955119;28;20051;-83
2023/05/18 11:06:36;;;;;;;0.00;0.00;;;;;;;;;;4956515;29;20048;-83
2023/05/18 11:09:02;;;;;;;0.00;0.00;;;;;;;;;;4955074;28;20129;-83
2023/05/18 11:11:31;;;;;;;0.00;0.00;;;;;;;;;;4956391;29;20042;-84
2023/05/18 11:14:01;;;;;;;0.00;0.00;;;;;;;;;;4955184;29;20191;-83
2023/05/18 11:16:34;;;;;;;0.00;0.00;;;;;;;;;;4956533;29;20050;-83
2023/05/18 11:19:08;;;;;;;0.00;0.00;;;;;;;;;;4956329;28;20044;-83
2023/05/18 11:21:34;;;;;;;0.00;0.00;;;;;;;;;;4956137;29;20047;-83
2023/05/18 11:24:06;;;;;;;0.00;0.00;;;;;;;;;;4955082;29;20066;-83
2023/05/18 11:26:37;;;;;;;0.00;0.00;;;;;;;;;;4955007;29;20047;-83
2023/05/18 11:29:15;;;;;;;0.00;0.00;;;;;;;;;;4954918;28;20051;-84
2023/05/18 11:31:45;;;;;;;0.00;0.00;;;;;;;;;;4955095;29;20098;-84
2023/05/18 11:34:30;;;;;;;0.00;0.00;;;;;;;;;;4954857;29;20042;-84
2023/05/18 11:36:56;;;;;;;0.00;0.00;;;;;;;;;;4955971;29;20047;-83
2023/05/18 11:39:23;;;;;;;0.00;0.00;;;;;;;;;;4954887;28;20101;-83
2023/05/18 11:42:00;;;;;;;0.00;0.00;;;;;;;;;;4955686;29;20051;-83
2023/05/18 11:44:27;;;;;;;0.00;0.00;;;;;;;;;;4954753;29;20050;-83
2023/05/18 11:47:02;;;;;;;0.00;0.00;;;;;;;;;;4954309;29;20125;-83
2023/05/18 11:49:29;;;;;;;0.00;0.00;;;;;;;;;;4956199;28;20039;-83
2023/05/18 11:52:12;;;;;;;0.00;0.00;;;;;;;;;;4938539;29;20050;-83
2023/05/18 11:54:52;;;;;;;0.00;0.00;;;;;;;;;;4955006;29;20058;-83
2023/05/18 11:57:41;;;;;;;0.00;0.00;;;;;;;;;;4954673;29;20175;-83
2023/05/18 12:00:09;;;;;;;0.00;0.00;;;;;;;;;;4956353;28;20130;-84
2023/05/18 12:02:35;;;;;;;0.00;0.00;;;;;;;;;;4938266;29;20043;-83
2023/05/18 12:05:02;;;;;;;0.00;0.00;;;;;;;;;;4954107;29;20051;-83
2023/05/18 12:07:29;;;;;;;0.00;0.00;;;;;;;;;;4937904;29;20050;-83
2023/05/18 12:09:59;;;;;;;0.00;0.00;;;;;;;;;;4955163;28;20055;-83
2023/05/18 12:12:25;;;;;;;0.00;0.00;;;;;;;;;;4953946;29;20047;-83
2023/05/18 12:14:58;;;;;;;0.00;0.00;;;;;;;;;;4953232;28;20134;-83
2023/05/18 12:17:43;;;;;;;0.00;0.00;;;;;;;;;;4955166;29;20147;-83
2023/05/18 12:20:10;;;;;;;0.00;0.00;;;;;;;;;;4954156;28;20055;-82
2023/05/18 12:22:37;;;;;;;0.00;0.00;;;;;;;;;;4954492;29;20483;-82
2023/05/18 12:25:03;;;;;;;0.00;0.00;;;;;;;;;;4955299;29;20039;-83
2023/05/18 12:27:29;;;;;;;0.00;0.00;;;;;;;;;;4954942;29;20035;-82
2023/05/18 12:29:55;;;;;;;0.00;0.00;;;;;;;;;;4954998;28;20035;-83
2023/05/18 12:32:21;;;;;;;0.00;0.00;;;;;;;;;;4937744;29;20157;-83
2023/05/18 12:34:47;;;;;;;0.00;0.00;;;;;;;;;;4953708;29;20134;-83
2023/05/18 12:37:13;;;;;;;0.00;0.00;;;;;;;;;;4954704;29;20499;-83
2023/05/18 12:39:39;;;;;;;0.13;0.00;;;;;;;;;;4953444;28;20498;-82
2023/05/18 12:42:23;;;;;;;0.00;0.00;;;;;;;;;;4953561;29;20135;-83
2023/05/18 12:44:49;;;;;;;0.00;0.00;;;;;;;;;;4954839;29;20545;-83
2023/05/18 12:47:15;;;;;;;0.00;0.00;;;;;;;;;;4953327;29;20051;-83
2023/05/18 12:49:43;;;;;;;0.00;0.00;;;;;;;;;;4954765;28;20035;-83
2023/05/18 12:52:13;;;;;;;0.00;0.00;;;;;;;;;;4954779;29;20050;-82
2023/05/18 12:54:57;;;;;;;0.00;0.00;;;;;;;;;;4954649;29;20043;-83
2023/05/18 12:57:29;;;;;;;0.00;0.00;;;;;;;;;;4936834;29;20339;-83
2023/05/18 12:59:55;;;;;;;0.00;0.00;;;;;;;;;;4954389;28;20495;-82
2023/05/18 13:02:26;;;;;;;0.00;0.00;;;;;;;;;;4954801;29;20039;-83
2023/05/18 13:05:01;;;;;;;0.00;0.00;;;;;;;;;;4953098;29;20055;-82
2023/05/18 13:07:27;;;;;;;0.00;0.00;;;;;;;;;;4954389;29;20051;-83
2023/05/18 13:09:55;;;;;;;0.00;0.00;;;;;;;;;;4954254;28;20042;-83
2023/05/18 13:12:35;;;;;;;0.00;0.00;;;;;;;;;;4954354;29;20483;-82
2023/05/18 13:15:07;;;;;;;0.00;0.00;;;;;;;;;;4952931;29;20431;-83
2023/05/18 13:17:33;;;;;;;0.00;0.00;;;;;;;;;;4953091;29;20047;-82
2023/05/18 13:19:59;;;;;;;0.00;0.00;;;;;;;;;;4954210;28;20050;-82
2023/05/18 13:22:25;;;;;;;0.00;0.00;;;;;;;;;;4952905;29;20043;-83
2023/05/18 13:24:51;;;;;;;0.00;0.00;;;;;;;;;;4952674;29;20376;-83
2023/05/18 13:27:17;;;;;;;0.00;0.00;;;;;;;;;;4959125;28;20050;-82
2023/05/18 13:29:43;;;;;;;0.00;0.00;;;;;;;;;;4960492;28;20447;-82
2023/05/18 13:32:09;;;;;;;0.00;0.00;;;;;;;;;;4960569;29;20113;-83
2023/05/18 13:34:35;;;;;;;0.00;0.00;;;;;;;;;;4960592;29;20146;-83
2023/05/18 13:37:01;;;;;;;0.00;0.00;;;;;;;;;;4959395;28;20380;-83
2023/05/18 13:39:27;;;;;;;0.00;0.00;;;;;;;;;;4958832;28;20063;-83
2023/05/18 13:41:53;;;;;;;0.00;0.00;;;;;;;;;;4960353;29;20467;-82
2023/05/18 13:44:19;;;;;;;0.00;0.00;;;;;;;;;;4958880;28;20047;-83
2023/05/18 13:46:45;;;;;;;0.00;0.00;;;;;;;;;;4960619;28;20387;-82
2023/05/18 13:49:12;;;;;;;0.00;0.00;;;;;;;;;;4959889;28;20031;-82
2023/05/18 13:51:38;;;;;;;0.00;0.00;;;;;;;;;;4960277;29;20039;-82
2023/05/18 13:54:04;;;;;;;0.00;0.00;;;;;;;;;;4958714;29;20487;-82
2023/05/18 13:56:31;;;;;;;0.00;0.00;;;;;;;;;;4960551;29;20134;-82
2023/05/18 13:58:57;;;;;;;0.00;0.00;;;;;;;;;;4958610;28;20051;-82
2023/05/18 14:01:23;;;;;;;0.00;0.00;;;;;;;;;;4960328;28;20039;-82
2023/05/18 14:03:49;;;;;;;0.00;0.00;;;;;;;;;;4959822;29;20083;-83
2023/05/18 14:06:15;;;;;;;0.00;0.00;;;;;;;;;;4959331;28;20055;-82
2023/05/18 14:08:41;;;;;;;0.00;0.00;;;;;;;;;;4958725;29;20483;-82
2023/05/18 14:11:07;;;;;;;0.00;0.00;;;;;;;;;;4960415;28;20089;-82
2023/05/18 14:13:33;;;;;;;0.00;0.00;;;;;;;;;;4959262;28;20051;-87
2023/05/18 14:15:59;;;;;;;0.00;0.00;;;;;;;;;;4958849;29;20499;-83
2023/05/18 14:18:25;;;;;;;0.00;0.00;;;;;;;;;;4958795;29;20047;-82
2023/05/18 14:20:51;;;;;;;0.00;0.00;;;;;;;;;;4959027;28;20499;-82
2023/05/18 14:23:17;;;;;;;0.00;0.00;;;;;;;;;;4959855;29;20055;-82
2023/05/18 14:25:44;;;;;;;0.00;0.00;;;;;;;;;;4958940;28;20039;-83
2023/05/18 14:28:10;;;;;;;0.00;0.00;;;;;;;;;;4958739;28;20129;-83
2023/05/18 14:30:36;;;;;;;0.00;0.00;;;;;;;;;;4959870;28;20043;-82
2023/05/18 14:33:02;;;;;;;0.00;0.00;;;;;;;;;;4942724;29;20206;-82
2023/05/18 14:35:28;;;;;;;0.00;0.00;;;;;;;;;;4958549;29;20121;-82
2023/05/18 14:37:54;;;;;;;0.00;0.00;;;;;;;;;;4956574;28;20551;-82
2023/05/18 14:40:20;;;;;;;0.00;0.00;;;;;;;;;;4955455;28;20046;-82
2023/05/18 14:42:46;;;;;;;0.00;0.00;;;;;;;;;;4955511;29;20130;-83
2023/05/18 14:45:12;;;;;;;0.00;0.00;;;;;;;;;;4955540;29;20380;-82